createdAt,value
2019-02-23T00:02:24.024Z,40.40
2019-02-23T00:04:54.525Z,40.50
2019-02-23T00:07:25.007Z,40.60
2019-02-23T00:09:55.664Z,40.60
2019-02-23T00:12:26.149Z,40.00
2019-02-23T00:14:56.678Z,39.90
2019-02-23T00:17:28.676Z,40.00
2019-02-23T00:19:59.287Z,40.40
2019-02-23T00:22:29.773Z,40.70
2019-02-23T00:25:00.344Z,39.80
2019-02-23T00:27:31.161Z,39.10
2019-02-23T00:30:01.697Z,39.60
2019-02-23T00:32:32.225Z,39.80
2019-02-23T00:35:02.687Z,39.40
2019-02-23T00:37:33.184Z,39.60
2019-02-23T00:40:03.732Z,40.40
2019-02-23T00:42:35.060Z,40.80
2019-02-23T00:45:06.987Z,40.60
2019-02-23T00:47:38.954Z,40.20
2019-02-23T00:50:10.880Z,40.60
2019-02-23T00:52:41.438Z,40.50
2019-02-23T00:55:11.976Z,41.10
2019-02-23T00:57:42.481Z,41.30
2019-02-23T01:00:14.020Z,41.70
2019-02-23T01:02:44.522Z,41.60
2019-02-23T01:05:16.558Z,41.50
2019-02-23T01:07:47.058Z,41.50
2019-02-23T01:10:19.458Z,41.40
2019-02-23T01:12:49.739Z,41.90
2019-02-23T01:15:20.312Z,42.40
2019-02-23T01:17:50.824Z,42.70
2019-02-23T01:20:21.296Z,42.30
2019-02-23T01:22:51.802Z,41.60
2019-02-23T01:25:22.385Z,41.90
2019-02-23T01:27:52.861Z,42.60
2019-02-23T01:30:23.508Z,42.70
2019-02-23T01:32:54.067Z,42.80
2019-02-23T01:35:24.547Z,42.90
2019-02-23T01:37:55.201Z,43.10
2019-02-23T01:40:25.821Z,43.90
2019-02-23T01:42:57.467Z,44.30
2019-02-23T01:45:27.972Z,44.10
2019-02-23T01:47:58.467Z,44.10
2019-02-23T01:50:29.167Z,45.00
2019-02-23T01:52:59.631Z,45.60
2019-02-23T01:55:30.134Z,46.30
2019-02-23T01:58:00.599Z,47.20
2019-02-23T02:00:31.539Z,47.00
2019-02-23T02:03:02.011Z,47.30
2019-02-23T02:05:32.582Z,46.60
2019-02-23T02:08:03.163Z,47.80
2019-02-23T02:10:33.715Z,48.30
2019-02-23T02:13:04.203Z,48.50
2019-02-23T02:15:34.700Z,49.10
2019-02-23T02:18:05.186Z,50.40
2019-02-23T02:20:35.702Z,49.50
2019-02-23T02:23:06.239Z,48.50
2019-02-23T02:25:36.751Z,49.30
2019-02-23T02:28:07.309Z,49.50
2019-02-23T02:30:37.842Z,49.80
2019-02-23T02:33:08.388Z,49.60
2019-02-23T02:35:38.894Z,48.50
2019-02-23T02:38:09.454Z,48.20
2019-02-23T02:40:39.974Z,47.00
2019-02-23T02:43:10.480Z,46.90
2019-02-23T02:45:42.505Z,47.50
2019-02-23T02:48:13.080Z,46.00
2019-02-23T02:50:43.563Z,44.60
2019-02-23T02:53:15.560Z,44.90
2019-02-23T02:55:47.351Z,45.10
2019-02-23T02:58:17.855Z,45.10
2019-02-23T03:00:49.685Z,46.00
2019-02-23T03:03:20.150Z,46.70
2019-02-23T03:05:51.938Z,47.60
2019-02-23T03:08:22.410Z,49.20
2019-02-23T03:10:52.923Z,49.60
2019-02-23T03:13:23.428Z,50.70
2019-02-23T03:15:53.935Z,52.20
2019-02-23T03:18:24.500Z,52.60
2019-02-23T03:20:56.288Z,52.00
2019-02-23T03:23:26.777Z,51.90
2019-02-23T03:25:57.294Z,52.30
2019-02-23T03:28:27.776Z,55.10
2019-02-23T03:30:58.268Z,53.90
2019-02-23T03:33:28.771Z,53.80
2019-02-23T03:35:59.274Z,54.10
2019-02-23T03:38:29.737Z,55.00
2019-02-23T03:41:00.267Z,55.80
2019-02-23T03:43:32.364Z,54.90
2019-02-23T03:46:02.874Z,55.00
2019-02-23T03:48:33.388Z,57.00
2019-02-23T03:51:03.875Z,56.60
2019-02-23T03:53:34.438Z,55.90
2019-02-23T03:56:04.920Z,56.00
2019-02-23T03:58:37.019Z,57.10
2019-02-23T04:01:07.503Z,57.60
2019-02-23T04:03:38.010Z,57.60
2019-02-23T04:06:10.182Z,58.60
2019-02-23T04:08:40.768Z,57.80
2019-02-23T04:11:11.269Z,57.60
2019-02-23T04:13:42.801Z,56.40
2019-02-23T04:16:13.395Z,55.90
2019-02-23T04:18:43.875Z,56.50
2019-02-23T04:21:15.149Z,56.70
2019-02-23T04:23:45.726Z,57.00
2019-02-23T04:26:16.201Z,57.40
2019-02-23T04:28:49.005Z,56.60
2019-02-23T04:31:19.486Z,55.80
2019-02-23T04:33:49.977Z,54.70
2019-02-23T04:36:20.469Z,55.10
2019-02-23T04:38:50.971Z,54.80
2019-02-23T04:41:21.541Z,54.80
2019-02-23T04:43:53.280Z,56.40
2019-02-23T04:46:24.177Z,56.60
2019-02-23T04:48:54.650Z,58.80
2019-02-23T04:51:25.145Z,58.80
2019-02-23T04:53:55.623Z,59.80
2019-02-23T04:56:26.130Z,61.60
2019-02-23T04:58:58.119Z,61.80
2019-02-23T05:01:30.010Z,61.30
2019-02-23T05:04:00.492Z,61.80
2019-02-23T05:06:31.021Z,63.20
2019-02-23T05:09:01.478Z,64.40
2019-02-23T05:11:31.982Z,63.00
2019-02-23T05:14:02.489Z,62.60
2019-02-23T05:16:32.962Z,62.70
2019-02-23T05:19:03.453Z,64.00
2019-02-23T05:21:33.942Z,65.10
2019-02-23T05:24:04.441Z,66.00
2019-02-23T05:26:35.575Z,67.20
2019-02-23T05:29:06.092Z,67.30
2019-02-23T05:31:36.583Z,67.80
2019-02-23T05:34:07.091Z,68.30
2019-02-23T05:36:37.627Z,68.60
2019-02-23T05:39:08.378Z,69.00
2019-02-23T05:41:38.842Z,69.30
2019-02-23T05:44:09.337Z,69.80
2019-02-23T05:46:39.856Z,70.50
2019-02-23T05:49:10.384Z,70.80
2019-02-23T05:51:40.843Z,70.10
2019-02-23T05:54:11.342Z,70.10
2019-02-23T05:56:43.448Z,71.20
2019-02-23T05:59:13.976Z,72.40
2019-02-23T06:01:44.490Z,72.70
2019-02-23T06:04:15.155Z,73.00
2019-02-23T06:06:45.646Z,73.80
2019-02-23T06:09:16.127Z,74.20
2019-02-23T06:11:46.624Z,74.30
2019-02-23T06:14:17.132Z,74.80
2019-02-23T06:16:48.850Z,75.90
2019-02-23T06:19:19.387Z,76.30
2019-02-23T06:21:53.994Z,75.50
2019-02-23T06:24:22.047Z,75.90
2019-02-23T06:26:52.561Z,77.90
2019-02-23T06:29:23.114Z,76.90
2019-02-23T06:31:55.232Z,76.90
2019-02-23T06:34:25.717Z,77.50
2019-02-23T06:36:56.226Z,77.10
2019-02-23T06:39:26.690Z,76.40
2019-02-23T06:41:57.211Z,77.00
2019-02-23T06:44:27.705Z,78.20
2019-02-23T06:46:58.217Z,78.60
2019-02-23T06:49:28.676Z,79.00
2019-02-23T06:52:04.224Z,78.60
2019-02-23T06:54:31.525Z,79.10
2019-02-23T06:57:02.120Z,78.20
2019-02-23T06:59:33.389Z,78.60
2019-02-23T07:02:03.900Z,77.80
2019-02-23T07:04:36.416Z,77.70
2019-02-23T07:07:06.631Z,77.60
2019-02-23T07:09:37.149Z,76.60
2019-02-23T07:12:07.711Z,75.50
2019-02-23T07:14:38.195Z,73.80
2019-02-23T07:17:08.695Z,72.60
2019-02-23T07:19:40.246Z,72.20
2019-02-23T07:22:15.510Z,73.20
2019-02-23T07:24:43.014Z,73.40
2019-02-23T07:27:13.516Z,74.10
2019-02-23T07:29:44.010Z,73.30
2019-02-23T07:32:14.504Z,71.40
2019-02-23T07:34:45.011Z,68.20
2019-02-23T07:37:15.521Z,67.60
2019-02-23T07:39:46.088Z,68.00
2019-02-23T07:42:16.577Z,65.70
2019-02-23T07:44:47.091Z,62.20
2019-02-23T07:47:17.680Z,60.50
2019-02-23T07:49:48.170Z,60.10
2019-02-23T07:52:26.026Z,59.60
2019-02-23T07:54:50.861Z,58.70
2019-02-23T07:57:21.361Z,58.50
2019-02-23T07:59:51.894Z,58.80
2019-02-23T08:02:25.765Z,58.10
2019-02-23T08:04:56.116Z,55.80
2019-02-23T08:07:26.597Z,55.30
2019-02-23T08:09:58.825Z,54.90
2019-02-23T08:12:29.328Z,56.20
2019-02-23T08:14:59.804Z,54.60
2019-02-23T08:17:30.411Z,52.90
2019-02-23T08:20:00.903Z,53.50
2019-02-23T08:22:37.466Z,54.20
2019-02-23T08:25:04.303Z,53.90
2019-02-23T08:27:36.354Z,53.80
2019-02-23T08:30:11.549Z,52.60
2019-02-23T08:32:42.073Z,50.70
2019-02-23T08:35:12.630Z,51.00
2019-02-23T08:37:43.147Z,50.70
2019-02-23T08:40:17.263Z,49.70
2019-02-23T08:42:47.770Z,48.80
2019-02-23T08:45:18.338Z,48.00
2019-02-23T08:47:50.030Z,47.10
2019-02-23T08:50:20.542Z,47.50
2019-02-23T08:52:51.003Z,45.80
2019-02-23T08:55:21.505Z,44.10
2019-02-23T08:57:51.978Z,43.70
2019-02-23T09:00:22.491Z,44.20
2019-02-23T09:02:53.058Z,46.70
2019-02-23T09:05:23.564Z,47.90
2019-02-23T09:07:54.078Z,45.40
2019-02-23T09:10:24.548Z,43.20
2019-02-23T09:12:55.112Z,41.60
2019-02-23T09:15:25.812Z,40.50
2019-02-23T09:17:56.283Z,40.40
2019-02-23T09:20:29.512Z,41.70
2019-02-23T09:23:00.430Z,38.80
2019-02-23T09:25:31.135Z,38.70
2019-02-23T09:28:01.616Z,36.80
2019-02-23T09:30:32.126Z,36.00
2019-02-23T09:33:02.572Z,35.80
2019-02-23T09:35:33.079Z,35.10
2019-02-23T09:38:03.542Z,35.70
2019-02-23T09:40:34.097Z,33.40
2019-02-23T09:43:04.568Z,31.50
2019-02-23T09:45:35.123Z,31.30
2019-02-23T09:48:05.646Z,30.90
2019-02-23T09:50:36.145Z,29.90
2019-02-23T09:53:11.158Z,29.70
2019-02-23T09:55:38.788Z,28.30
2019-02-23T09:58:09.291Z,28.40
2019-02-23T10:00:39.755Z,29.30
2019-02-23T10:03:10.230Z,28.70
2019-02-23T10:05:40.727Z,28.40
2019-02-23T10:08:11.196Z,28.50
2019-02-23T10:10:41.704Z,28.20
2019-02-23T10:13:12.157Z,27.30
2019-02-23T10:15:42.958Z,26.60
2019-02-23T10:18:13.435Z,26.20
2019-02-23T10:20:43.911Z,26.30
2019-02-23T10:23:21.515Z,26.30
2019-02-23T10:25:46.571Z,26.00
2019-02-23T10:28:18.702Z,25.70
2019-02-23T10:30:49.168Z,25.30
2019-02-23T10:33:19.666Z,24.90
2019-02-23T10:35:50.120Z,25.00
2019-02-23T10:38:20.683Z,25.30
2019-02-23T10:40:51.135Z,25.20
2019-02-23T10:43:21.609Z,25.00
2019-02-23T10:45:52.079Z,25.80
2019-02-23T10:48:22.669Z,26.20
2019-02-23T10:50:53.136Z,25.70
2019-02-23T10:53:32.608Z,25.50
2019-02-23T10:55:55.789Z,23.30
2019-02-23T10:58:26.334Z,23.50
2019-02-23T11:00:56.842Z,23.80
2019-02-23T11:03:27.423Z,24.40
2019-02-23T11:05:57.939Z,25.00
2019-02-23T11:08:28.403Z,26.40
2019-02-23T11:10:58.968Z,25.20
2019-02-23T11:13:30.608Z,25.40
2019-02-23T11:16:01.088Z,26.60
2019-02-23T11:18:31.723Z,26.90
2019-02-23T11:21:02.275Z,26.10
2019-02-23T11:23:43.512Z,26.00
2019-02-23T11:26:05.200Z,25.40
2019-02-23T11:28:35.756Z,25.10
2019-02-23T11:31:06.206Z,24.80
2019-02-23T11:33:36.719Z,27.90
2019-02-23T11:36:07.177Z,24.90
2019-02-23T11:38:37.659Z,23.70
2019-02-23T11:41:08.124Z,24.20
2019-02-23T11:43:38.621Z,22.50
2019-02-23T11:46:09.636Z,22.30
2019-02-23T11:48:40.129Z,21.80
2019-02-23T11:51:10.575Z,21.20
2019-02-23T11:53:41.058Z,20.60
2019-02-23T11:56:11.508Z,20.30
2019-02-23T11:58:42.556Z,20.50
2019-02-23T12:01:13.014Z,20.90
2019-02-23T12:03:45.284Z,20.20
2019-02-23T12:06:15.728Z,19.90
2019-02-23T12:08:48.635Z,20.90
2019-02-23T12:11:20.134Z,21.10
2019-02-23T12:13:52.273Z,20.90
2019-02-23T12:16:23.979Z,21.40
2019-02-23T12:18:54.469Z,21.30
2019-02-23T12:21:27.248Z,21.60
2019-02-23T12:24:05.662Z,21.40
2019-02-23T12:26:29.913Z,21.70
2019-02-23T12:29:00.383Z,22.20
2019-02-23T12:31:30.839Z,21.70
2019-02-23T12:34:01.335Z,21.40
2019-02-23T12:36:31.803Z,21.10
2019-02-23T12:39:02.284Z,21.80
2019-02-23T12:41:33.664Z,21.50
2019-02-23T12:44:04.109Z,22.20
2019-02-23T12:46:34.594Z,22.20
2019-02-23T12:49:05.057Z,22.00
2019-02-23T12:51:36.401Z,22.20
2019-02-23T12:54:16.465Z,22.00
2019-02-23T12:56:39.057Z,21.90
2019-02-23T12:59:09.534Z,24.00
2019-02-23T13:01:40.096Z,24.60
2019-02-23T13:04:10.556Z,24.90
2019-02-23T13:06:41.110Z,23.80
2019-02-23T13:09:24.084Z,24.50
2019-02-23T13:12:10.379Z,25.20
2019-02-23T13:15:00.308Z,25.30
2019-02-23T13:17:44.268Z,24.80
2019-02-23T13:20:27.664Z,25.50
2019-02-23T13:23:41.645Z,25.70
2019-02-23T13:26:25.806Z,25.70
2019-02-23T13:29:15.906Z,25.50
2019-02-23T13:32:09.134Z,25.80
2019-02-23T13:35:18.833Z,26.30
2019-02-23T13:38:25.580Z,26.40
2019-02-23T13:41:23.523Z,27.10
2019-02-23T13:44:32.230Z,27.00
2019-02-23T13:47:19.182Z,27.20
2019-02-23T13:49:59.821Z,27.80
2019-02-23T13:53:06.665Z,28.40
2019-02-23T13:56:17.494Z,28.40
2019-02-23T13:58:56.082Z,28.90
2019-02-23T14:01:59.803Z,29.10
2019-02-23T14:05:22.505Z,28.50
2019-02-23T14:08:28.026Z,28.50
2019-02-23T14:11:30.428Z,28.30
2019-02-23T14:14:35.834Z,28.30
2019-02-23T14:17:29.215Z,28.60
2019-02-23T14:20:16.172Z,29.10
2019-02-23T14:23:18.092Z,29.00
2019-02-23T14:26:14.399Z,28.80
2019-02-23T14:29:24.426Z,29.10
2019-02-23T14:32:11.476Z,29.20
2019-02-23T14:35:10.778Z,29.20
2019-02-23T14:38:10.170Z,29.20
2019-02-23T14:41:09.720Z,29.40
2019-02-23T14:44:13.401Z,29.70
2019-02-23T14:47:05.932Z,30.00
2019-02-23T14:49:59.111Z,29.70
2019-02-23T14:52:43.590Z,30.00
2019-02-23T14:55:33.742Z,29.90
2019-02-23T14:58:59.486Z,30.00
2019-02-23T15:01:40.409Z,30.00
2019-02-23T15:04:55.058Z,30.40
2019-02-23T15:07:45.185Z,29.90
2019-02-23T15:10:53.520Z,31.30
2019-02-23T15:14:06.565Z,31.20
2019-02-23T15:17:32.995Z,31.60
2019-02-23T15:20:16.709Z,31.00
2019-02-23T15:23:06.759Z,30.80
2019-02-23T15:25:59.926Z,31.00
2019-02-23T15:28:50.404Z,31.20
2019-02-23T15:31:25.658Z,31.40
2019-02-23T15:34:09.905Z,32.90
2019-02-23T15:37:14.781Z,33.10
2019-02-23T15:40:07.656Z,33.20
2019-02-23T15:43:00.567Z,33.20
2019-02-23T15:46:11.471Z,33.60
2019-02-23T15:49:19.975Z,33.70
2019-02-23T15:51:50.605Z,33.30
2019-02-23T15:54:21.205Z,33.20
2019-02-23T15:56:52.467Z,34.30
2019-02-23T15:59:22.933Z,34.60
2019-02-23T16:01:53.433Z,34.70
2019-02-23T16:04:23.922Z,34.40
2019-02-23T16:06:54.385Z,35.00
2019-02-23T16:09:24.821Z,35.70
2019-02-23T16:11:55.305Z,35.80
2019-02-23T16:14:25.813Z,35.90
2019-02-23T16:16:56.273Z,35.70
2019-02-23T16:19:26.755Z,36.40
2019-02-23T16:21:57.219Z,36.80
2019-02-23T16:24:28.488Z,37.20
2019-02-23T16:26:58.956Z,36.90
2019-02-23T16:29:29.441Z,37.00
2019-02-23T16:31:59.978Z,37.20
2019-02-23T16:34:32.589Z,37.20
2019-02-23T16:37:03.045Z,37.30
2019-02-23T16:39:35.539Z,37.60
2019-02-23T16:42:06.067Z,38.40
2019-02-23T16:44:36.560Z,39.40
2019-02-23T16:47:07.132Z,40.40
2019-02-23T16:49:37.590Z,40.90
2019-02-23T16:52:10.180Z,40.00
2019-02-23T16:54:40.624Z,40.20
2019-02-23T16:57:13.129Z,40.30
2019-02-23T16:59:43.581Z,40.40
2019-02-23T17:02:16.074Z,40.40
2019-02-23T17:04:54.099Z,40.00
2019-02-23T17:07:19.289Z,40.00
2019-02-23T17:09:49.799Z,39.80
2019-02-23T17:12:21.283Z,40.50
2019-02-23T17:14:51.845Z,40.50
2019-02-23T17:17:22.311Z,41.10
2019-02-23T17:19:54.598Z,42.00
2019-02-23T17:22:25.062Z,43.00
2019-02-23T17:24:55.673Z,43.60
2019-02-23T17:27:35.814Z,43.80
2019-02-23T17:29:58.338Z,43.30
2019-02-23T17:32:28.826Z,42.90
2019-02-23T17:34:59.305Z,43.40
2019-02-23T17:37:30.555Z,43.80
2019-02-23T17:40:00.996Z,43.90
2019-02-23T17:42:31.479Z,44.60
2019-02-23T17:45:02.001Z,46.00
2019-02-23T17:47:32.535Z,45.30
2019-02-23T17:50:03.174Z,45.10
2019-02-23T17:52:33.669Z,45.80
2019-02-23T17:55:06.103Z,45.80
2019-02-23T17:57:36.566Z,46.50
2019-02-23T18:00:13.994Z,47.00
2019-02-23T18:02:44.469Z,46.10
2019-02-23T18:05:16.504Z,46.00
2019-02-23T18:07:46.981Z,46.40
2019-02-23T18:10:17.479Z,47.20
2019-02-23T18:12:48.013Z,47.50
2019-02-23T18:15:18.519Z,47.90
2019-02-23T18:17:49.290Z,47.80
2019-02-23T18:20:20.539Z,48.40
2019-02-23T18:22:51.059Z,48.20
2019-02-23T18:25:21.590Z,48.70
2019-02-23T18:27:53.680Z,50.60
2019-02-23T18:30:24.204Z,50.90
2019-02-23T18:32:54.738Z,54.50
2019-02-23T18:35:25.208Z,55.50
2019-02-23T18:37:56.793Z,55.50
2019-02-23T18:40:28.942Z,55.90
2019-02-23T18:43:00.119Z,56.20
2019-02-23T18:45:30.608Z,57.60
2019-02-23T18:48:01.134Z,57.10
2019-02-23T18:50:31.677Z,56.10
2019-02-23T18:53:02.167Z,55.90
2019-02-23T18:55:40.628Z,56.40
2019-02-23T18:58:04.837Z,56.10
2019-02-23T19:00:35.309Z,56.20
2019-02-23T19:03:05.825Z,56.00
2019-02-23T19:05:37.050Z,55.50
2019-02-23T19:08:07.571Z,54.50
2019-02-23T19:10:38.034Z,55.30
2019-02-23T19:13:08.607Z,55.80
2019-02-23T19:15:39.197Z,56.30
2019-02-23T19:18:09.708Z,56.70
2019-02-23T19:20:40.174Z,56.80
2019-02-23T19:23:10.687Z,55.70
2019-02-23T19:25:41.159Z,54.90
2019-02-23T19:28:11.667Z,54.90
2019-02-23T19:30:43.759Z,53.40
2019-02-23T19:33:21.600Z,53.50
2019-02-23T19:35:52.105Z,54.00
2019-02-23T19:38:22.578Z,54.50
2019-02-23T19:40:54.304Z,54.00
2019-02-23T19:43:25.716Z,53.90
2019-02-23T19:45:56.211Z,54.10
2019-02-23T19:48:26.724Z,53.00
2019-02-23T19:51:01.944Z,52.30
2019-02-23T19:53:32.407Z,54.00
2019-02-23T19:56:03.468Z,56.20
2019-02-23T19:58:33.935Z,56.00
2019-02-23T20:01:04.431Z,57.50
2019-02-23T20:03:34.966Z,59.80
2019-02-23T20:06:05.540Z,59.30
2019-02-23T20:08:36.030Z,57.50
2019-02-23T20:11:06.540Z,58.80
2019-02-23T20:13:37.026Z,61.20
2019-02-23T20:16:07.527Z,62.40
2019-02-23T20:18:38.082Z,63.10
2019-02-23T20:21:08.606Z,64.20
2019-02-23T20:23:39.062Z,64.50
2019-02-23T20:26:09.559Z,64.80
2019-02-23T20:28:40.743Z,64.70
2019-02-23T20:31:11.246Z,65.20
2019-02-23T20:33:44.903Z,66.60
2019-02-23T20:36:15.945Z,67.70
2019-02-23T20:38:46.516Z,68.60
2019-02-23T20:41:16.985Z,70.50
2019-02-23T20:43:47.577Z,69.70
2019-02-23T20:46:18.060Z,70.10
2019-02-23T20:48:50.428Z,70.30
2019-02-23T20:51:20.954Z,70.90
2019-02-23T20:53:51.431Z,71.10
2019-02-23T20:56:21.946Z,71.30
2019-02-23T20:58:52.421Z,72.10
2019-02-23T21:01:22.924Z,72.60
2019-02-23T21:03:53.436Z,74.40
2019-02-23T21:06:23.921Z,75.20
2019-02-23T21:08:54.430Z,75.60
2019-02-23T21:11:24.960Z,75.80
2019-02-23T21:13:55.417Z,75.60
2019-02-23T21:16:25.922Z,75.20
2019-02-23T21:18:56.415Z,76.10
2019-02-23T21:21:26.907Z,76.70
2019-02-23T21:23:57.406Z,77.30
2019-02-23T21:26:27.946Z,76.80
2019-02-23T21:28:58.547Z,77.60
2019-02-23T21:31:29.016Z,77.80
2019-02-23T21:33:59.515Z,77.50
2019-02-23T21:36:30.852Z,77.40
2019-02-23T21:39:01.357Z,77.40
2019-02-23T21:41:31.861Z,77.40
2019-02-23T21:44:02.352Z,75.80
2019-02-23T21:46:32.838Z,76.10
2019-02-23T21:49:03.338Z,76.30
2019-02-23T21:51:33.809Z,74.80
2019-02-23T21:54:09.864Z,75.40
2019-02-23T21:56:36.455Z,75.50
2019-02-23T21:59:10.087Z,74.90
2019-02-23T22:01:40.571Z,75.40
2019-02-23T22:04:21.764Z,75.10
2019-02-23T22:06:52.263Z,74.80
2019-02-23T22:09:22.754Z,74.90
2019-02-23T22:11:53.238Z,75.70
2019-02-23T22:14:23.751Z,75.60
2019-02-23T22:16:54.230Z,76.20
2019-02-23T22:19:24.735Z,76.90
2019-02-23T22:21:55.246Z,77.80
2019-02-23T22:24:25.730Z,78.20
2019-02-23T22:26:56.252Z,78.30
2019-02-23T22:29:26.725Z,79.00
2019-02-23T22:31:57.221Z,79.70
2019-02-23T22:34:27.707Z,79.20
2019-02-23T22:36:58.198Z,80.30
2019-02-23T22:39:28.668Z,80.90
2019-02-23T22:41:59.171Z,80.90
2019-02-23T22:44:29.652Z,81.00
2019-02-23T22:47:00.164Z,81.90
2019-02-23T22:49:30.643Z,83.00
2019-02-23T22:52:01.144Z,83.40
2019-02-23T22:54:31.615Z,83.30
2019-02-23T22:57:02.118Z,83.00
2019-02-23T22:59:32.584Z,83.00
2019-02-23T23:02:04.482Z,83.10
2019-02-23T23:04:35.004Z,82.40
2019-02-23T23:07:05.553Z,82.50
2019-02-23T23:09:36.071Z,82.90
2019-02-23T23:12:06.609Z,83.00
2019-02-23T23:14:38.208Z,82.90
2019-02-23T23:17:08.750Z,83.60
2019-02-23T23:19:39.259Z,83.60
2019-02-23T23:22:11.285Z,83.30
2019-02-23T23:24:41.760Z,83.40
2019-02-23T23:27:12.263Z,83.30
2019-02-23T23:29:42.776Z,83.20
2019-02-23T23:32:13.243Z,81.70
2019-02-23T23:34:43.743Z,82.90
2019-02-23T23:37:14.213Z,82.50
2019-02-23T23:39:46.249Z,82.40
2019-02-23T23:42:17.567Z,83.10
2019-02-23T23:44:48.280Z,84.20
2019-02-23T23:47:18.846Z,84.40
2019-02-23T23:49:49.354Z,84.40
2019-02-23T23:52:20.986Z,84.80
2019-02-23T23:54:51.483Z,85.20
2019-02-23T23:57:21.963Z,85.20
2019-02-23T23:59:52.478Z,85.30
